Terminal Aerodrome Forecast
Issued by NWS

Home | Current Version | Previous Version | Text Only | Print | Product List | Glossary On
Versions: 1 2 3 4 5 6 7 8 9 10 11 12 13 14
000
FTUS43 KLSX 210926 AAA
TAFCPS
TAF AMD
KCPS 210926Z 2109/2206 35008KT P6SM OVC200
     FM211200 01006KT P6SM VCSH OVC100
     FM211600 36006KT P6SM OVC200
     FM212200 05006KT P6SM VCSH OVC050
     FM220400 06009KT P6SM -RA OVC045=

USA.gov is the U.S. government's official web portal to all federal, state and local government web resources and services.